createdAt,value
2023-01-30T00:02:18.514Z,18.87
2023-01-30T00:05:27.195Z,21.63
2023-01-30T00:08:35.297Z,18.47
2023-01-30T00:11:44.991Z,16.83
2023-01-30T00:14:53.319Z,20.63
2023-01-30T00:18:01.576Z,17.03
2023-01-30T00:21:13.009Z,18.73
2023-01-30T00:24:21.428Z,18.77
2023-01-30T00:27:32.337Z,16.80
2023-01-30T00:30:40.993Z,19.23
2023-01-30T00:33:49.239Z,14.77
2023-01-30T00:37:07.859Z,17.37
2023-01-30T00:40:17.572Z,19.43
2023-01-30T00:43:44.995Z,15.13
2023-01-30T00:47:08.928Z,18.80
2023-01-30T00:50:17.933Z,18.10
2023-01-30T00:53:26.721Z,14.67
2023-01-30T00:56:35.127Z,18.63
2023-01-30T00:59:44.970Z,16.60
2023-01-30T01:02:53.454Z,14.40
2023-01-30T01:06:01.771Z,14.83
2023-01-30T01:09:10.235Z,15.10
2023-01-30T01:12:18.562Z,15.83
2023-01-30T01:15:29.303Z,14.63
2023-01-30T01:18:37.907Z,16.00
2023-01-30T01:21:48.837Z,15.77
2023-01-30T01:24:57.242Z,16.90
2023-01-30T01:28:06.169Z,13.73
2023-01-30T01:31:18.414Z,16.70
2023-01-30T01:34:26.876Z,17.43
2023-01-30T01:37:35.457Z,14.03
2023-01-30T01:41:06.289Z,13.10
2023-01-30T01:44:17.472Z,13.87
2023-01-30T01:47:27.759Z,16.13
2023-01-30T01:50:45.197Z,15.57
2023-01-30T01:54:03.049Z,15.20
2023-01-30T01:57:22.699Z,14.60
2023-01-30T02:00:33.318Z,18.33
2023-01-30T02:03:48.592Z,13.70
2023-01-30T02:06:57.794Z,10.50
2023-01-30T02:10:09.623Z,16.43
2023-01-30T02:13:19.010Z,13.57
2023-01-30T02:16:28.828Z,15.50
2023-01-30T02:19:50.722Z,14.53
2023-01-30T02:24:02.634Z,14.87
2023-01-30T02:27:37.355Z,14.43
2023-01-30T02:31:26.035Z,15.50
2023-01-30T02:34:52.560Z,12.30
2023-01-30T02:38:20.459Z,18.50
2023-01-30T02:41:38.472Z,13.33
2023-01-30T02:49:37.448Z,15.23
2023-01-30T02:52:49.550Z,15.90
2023-01-30T02:55:58.436Z,12.90
2023-01-30T02:59:07.497Z,18.10
2023-01-30T03:03:12.906Z,17.63
2023-01-30T03:06:54.448Z,15.67
2023-01-30T03:10:10.716Z,14.43
2023-01-30T03:13:41.310Z,15.23
2023-01-30T03:16:56.025Z,14.40
2023-01-30T03:20:05.261Z,15.90
2023-01-30T03:23:15.204Z,18.43
2023-01-30T03:26:30.734Z,14.70
2023-01-30T03:29:40.171Z,15.77
2023-01-30T03:32:48.545Z,14.97
2023-01-30T03:35:57.107Z,15.47
2023-01-30T03:39:07.112Z,20.10
2023-01-30T03:42:15.573Z,15.03
2023-01-30T03:45:24.479Z,16.00
2023-01-30T03:48:33.046Z,18.03
2023-01-30T03:51:41.230Z,20.37
2023-01-30T03:54:50.801Z,16.87
2023-01-30T03:57:59.621Z,19.97
2023-01-30T04:01:13.401Z,19.13
2023-01-30T04:04:22.862Z,18.33
2023-01-30T04:07:32.061Z,22.30
2023-01-30T04:10:41.785Z,16.47
2023-01-30T04:13:50.077Z,25.53
2023-01-30T04:16:58.635Z,17.50
2023-01-30T04:20:21.429Z,17.93
2023-01-30T04:23:34.058Z,20.60
2023-01-30T04:26:46.040Z,22.70
2023-01-30T04:29:55.600Z,22.87
2023-01-30T04:33:03.948Z,21.77
2023-01-30T04:36:13.696Z,17.10
2023-01-30T04:39:22.924Z,15.93
2023-01-30T04:42:32.782Z,17.83
2023-01-30T04:46:03.590Z,17.43
2023-01-30T04:49:12.967Z,23.10
2023-01-30T04:52:21.193Z,22.33
2023-01-30T04:55:29.853Z,22.57
2023-01-30T04:58:39.628Z,20.20
2023-01-30T05:01:49.172Z,18.87
2023-01-30T05:04:57.428Z,17.67
2023-01-30T05:08:06.500Z,18.40
2023-01-30T05:11:14.702Z,17.60
2023-01-30T05:14:24.951Z,15.77
2023-01-30T05:17:33.450Z,18.60
2023-01-30T05:20:41.872Z,16.70
2023-01-30T05:23:50.455Z,18.03
2023-01-30T05:26:58.684Z,14.40
2023-01-30T05:30:10.734Z,15.33
2023-01-30T05:33:18.932Z,19.70
2023-01-30T05:36:27.162Z,17.73
2023-01-30T05:39:35.428Z,15.50
2023-01-30T05:42:43.579Z,15.43
2023-01-30T05:45:55.885Z,14.80
2023-01-30T05:49:04.804Z,15.73
2023-01-30T05:52:13.090Z,16.43
2023-01-30T05:55:21.341Z,16.90
2023-01-30T05:58:30.271Z,20.47
2023-01-30T06:01:39.780Z,18.33
2023-01-30T06:04:48.054Z,15.27
2023-01-30T06:07:56.267Z,15.03
2023-01-30T06:11:07.399Z,17.40
2023-01-30T06:14:15.858Z,14.17
2023-01-30T06:17:25.365Z,17.20
2023-01-30T06:20:33.512Z,15.00
2023-01-30T06:23:42.304Z,13.60
2023-01-30T06:26:50.565Z,14.27
2023-01-30T06:29:58.767Z,13.77
2023-01-30T06:33:09.453Z,13.47
2023-01-30T06:36:17.710Z,15.57
2023-01-30T06:39:26.022Z,15.20
2023-01-30T06:42:34.381Z,16.27
2023-01-30T06:45:42.989Z,15.70
2023-01-30T06:48:52.484Z,12.43
2023-01-30T06:52:00.634Z,12.40
2023-01-30T06:55:10.457Z,10.37
2023-01-30T06:58:18.600Z,13.77
2023-01-30T07:01:28.923Z,10.50
2023-01-30T07:04:38.885Z,13.63
2023-01-30T07:07:47.072Z,14.30
2023-01-30T07:10:55.489Z,11.47
2023-01-30T07:14:05.674Z,15.57
2023-01-30T07:17:15.026Z,12.63
2023-01-30T07:20:25.058Z,11.53
2023-01-30T07:23:33.432Z,11.90
2023-01-30T07:26:41.747Z,11.60
2023-01-30T07:29:51.892Z,11.93
2023-01-30T07:33:02.201Z,17.43
2023-01-30T07:36:12.162Z,16.13
2023-01-30T07:39:20.710Z,15.20
2023-01-30T07:42:29.049Z,14.47
2023-01-30T07:45:40.677Z,16.00
2023-01-30T07:48:49.102Z,14.33
2023-01-30T07:51:58.882Z,14.93
2023-01-30T07:55:08.262Z,16.07
2023-01-30T07:58:18.095Z,13.23
2023-01-30T08:01:26.713Z,14.43
2023-01-30T08:04:35.289Z,17.23
2023-01-30T08:07:44.974Z,16.00
2023-01-30T08:10:53.871Z,15.47
2023-01-30T08:14:03.336Z,15.40
2023-01-30T08:17:11.880Z,15.00
2023-01-30T08:20:21.351Z,13.53
2023-01-30T08:23:32.310Z,13.63
2023-01-30T08:26:40.937Z,13.77
2023-01-30T08:29:49.715Z,17.30
2023-01-30T08:32:58.729Z,13.63
2023-01-30T08:36:09.729Z,12.93
2023-01-30T08:39:20.716Z,16.73
2023-01-30T08:42:28.957Z,13.23
2023-01-30T08:45:37.703Z,14.50
2023-01-30T08:48:50.052Z,10.53
2023-01-30T08:51:58.874Z,12.17
2023-01-30T08:55:10.828Z,11.20
2023-01-30T08:58:19.535Z,12.27
2023-01-30T09:01:27.938Z,11.03
2023-01-30T09:04:36.571Z,10.43
2023-01-30T09:07:46.266Z,14.93
2023-01-30T09:11:00.054Z,12.43
2023-01-30T09:14:08.228Z,11.97
2023-01-30T09:17:16.649Z,9.50
2023-01-30T09:20:25.726Z,10.27
2023-01-30T09:23:34.146Z,12.40
2023-01-30T09:26:45.241Z,14.43
2023-01-30T09:29:53.447Z,11.57
2023-01-30T09:33:02.335Z,12.13
2023-01-30T09:36:11.324Z,11.23
2023-01-30T09:39:20.285Z,11.30
2023-01-30T09:43:06.136Z,9.97
2023-01-30T09:46:29.486Z,10.43
2023-01-30T09:49:54.987Z,10.63
2023-01-30T09:53:11.205Z,13.03
2023-01-30T09:56:19.703Z,8.87
2023-01-30T09:59:45.150Z,12.70
2023-01-30T10:03:05.098Z,10.70
2023-01-30T10:06:16.409Z,10.57
2023-01-30T10:09:43.767Z,11.57
2023-01-30T10:13:07.133Z,11.07
2023-01-30T10:16:26.810Z,13.00
2023-01-30T10:20:04.398Z,12.33
2023-01-30T10:23:48.542Z,12.20
2023-01-30T10:26:59.541Z,8.53
2023-01-30T10:30:17.554Z,9.13
2023-01-30T10:33:36.155Z,13.30
2023-01-30T10:36:53.417Z,11.23
2023-01-30T10:40:13.971Z,9.57
2023-01-30T10:43:31.444Z,8.77
2023-01-30T10:47:10.194Z,11.17
2023-01-30T10:50:27.223Z,8.20
2023-01-30T10:53:46.252Z,8.70
2023-01-30T10:57:08.009Z,7.50
2023-01-30T11:00:29.708Z,7.00
2023-01-30T11:03:46.223Z,6.50
2023-01-30T11:06:59.335Z,5.60
2023-01-30T11:10:19.458Z,6.77
2023-01-30T11:13:31.898Z,4.57
2023-01-30T11:16:48.380Z,3.87
2023-01-30T11:19:59.221Z,4.83
2023-01-30T11:23:22.975Z,3.50
2023-01-30T11:26:47.095Z,4.83
2023-01-30T11:30:16.362Z,4.70
2023-01-30T11:33:34.516Z,4.30
2023-01-30T11:36:43.355Z,2.73
2023-01-30T11:39:54.500Z,2.70
2023-01-30T11:43:06.772Z,3.80
2023-01-30T11:46:20.724Z,7.63
2023-01-30T11:49:51.475Z,5.80
2023-01-30T11:53:27.923Z,8.03
2023-01-30T11:56:42.604Z,6.20
2023-01-30T11:59:58.027Z,4.97
2023-01-30T12:03:12.869Z,4.23
2023-01-30T12:06:33.275Z,5.33
2023-01-30T12:09:41.716Z,6.57
2023-01-30T12:12:54.794Z,6.47
2023-01-30T12:16:20.624Z,4.93
2023-01-30T12:19:45.994Z,7.10
2023-01-30T12:23:12.094Z,5.20
2023-01-30T12:26:27.824Z,3.33
2023-01-30T12:29:49.082Z,4.20
2023-01-30T12:36:35.746Z,3.10
2023-01-30T12:40:01.718Z,5.57
2023-01-30T12:43:40.784Z,3.70
2023-01-30T12:47:13.155Z,2.87
2023-01-30T12:50:34.841Z,3.27
2023-01-30T12:54:01.878Z,4.03
2023-01-30T12:57:25.242Z,3.83
2023-01-30T13:00:53.283Z,2.00
2023-01-30T13:04:15.417Z,2.90
2023-01-30T13:07:34.462Z,3.57
2023-01-30T13:10:53.385Z,2.77
2023-01-30T13:14:17.045Z,2.63
2023-01-30T13:18:00.726Z,2.47
2023-01-30T13:21:19.848Z,2.63
2023-01-30T13:24:49.149Z,2.57
2023-01-30T13:28:04.301Z,1.77
2023-01-30T13:31:18.737Z,2.17
2023-01-30T13:34:35.454Z,2.60
2023-01-30T13:37:49.232Z,1.20
2023-01-30T13:41:01.631Z,5.30
2023-01-30T13:44:22.868Z,2.10
2023-01-30T13:47:49.904Z,2.00
2023-01-30T13:51:32.354Z,1.27
2023-01-30T13:55:01.829Z,2.30
2023-01-30T13:58:32.677Z,1.80
2023-01-30T14:02:19.903Z,0.70
2023-01-30T14:06:04.767Z,1.10
2023-01-30T14:09:25.730Z,0.70
2023-01-30T14:12:41.971Z,0.73
2023-01-30T14:15:57.543Z,2.10
2023-01-30T14:19:46.708Z,1.70
2023-01-30T14:22:57.986Z,1.50
2023-01-30T14:26:06.411Z,2.83
2023-01-30T14:29:54.022Z,2.23
2023-01-30T14:33:03.968Z,7.10
2023-01-30T14:36:38.063Z,11.73
2023-01-30T14:39:56.352Z,3.20
2023-01-30T14:43:53.259Z,5.93
2023-01-30T14:47:33.942Z,1.03
2023-01-30T14:50:32.216Z,1.40
2023-01-30T14:53:55.370Z,3.07
2023-01-30T14:57:07.176Z,9.57
2023-01-30T15:00:21.880Z,5.30
2023-01-30T15:03:39.526Z,1.10
2023-01-30T15:06:50.694Z,1.20
2023-01-30T15:10:03.968Z,2.17
2023-01-30T15:13:59.968Z,2.03
2023-01-30T15:17:27.468Z,1.43
2023-01-30T15:20:55.267Z,1.90
2023-01-30T15:24:27.030Z,1.37
2023-01-30T15:27:55.923Z,1.27
2023-01-30T15:31:13.654Z,2.93
2023-01-30T15:34:23.465Z,1.40
2023-01-30T15:37:39.618Z,5.63
2023-01-30T15:40:48.463Z,2.57
2023-01-30T15:44:45.302Z,2.40
2023-01-30T15:48:23.760Z,2.43
2023-01-30T15:51:35.171Z,1.77
2023-01-30T15:54:51.270Z,2.73
2023-01-30T15:58:07.718Z,2.17
2023-01-30T16:01:22.533Z,3.47
2023-01-30T16:04:32.089Z,1.97
2023-01-30T16:07:40.719Z,2.17
2023-01-30T16:10:51.895Z,2.57
2023-01-30T16:14:00.660Z,3.50
2023-01-30T16:17:12.699Z,4.80
2023-01-30T16:20:21.028Z,3.53
2023-01-30T16:23:34.981Z,3.73
2023-01-30T16:26:48.540Z,4.27
2023-01-30T16:30:00.565Z,3.10
2023-01-30T16:33:12.255Z,2.73
2023-01-30T16:36:40.642Z,5.00
2023-01-30T16:40:12.870Z,3.87
2023-01-30T16:43:27.217Z,3.87
2023-01-30T16:46:53.182Z,6.87
2023-01-30T16:50:02.073Z,4.10
2023-01-30T16:53:18.429Z,4.77
2023-01-30T16:56:29.654Z,3.23
2023-01-30T16:59:40.310Z,3.40
2023-01-30T17:02:54.851Z,3.30
2023-01-30T17:06:12.585Z,4.93
2023-01-30T17:09:39.397Z,4.33
2023-01-30T17:12:53.197Z,3.30
2023-01-30T17:16:34.082Z,4.97
2023-01-30T17:19:42.591Z,4.60
2023-01-30T17:22:53.893Z,4.90
2023-01-30T17:26:02.189Z,4.90
2023-01-30T17:29:23.383Z,5.93
2023-01-30T17:32:40.859Z,6.03
2023-01-30T17:35:50.064Z,3.93
2023-01-30T17:39:00.586Z,4.00
2023-01-30T17:42:13.591Z,5.57
2023-01-30T17:45:31.199Z,3.70
2023-01-30T17:48:41.627Z,3.23
2023-01-30T17:51:53.898Z,5.30
2023-01-30T17:55:02.372Z,6.60
2023-01-30T17:58:20.455Z,4.27
2023-01-30T18:01:29.036Z,6.30
2023-01-30T18:04:40.080Z,4.57
2023-01-30T18:07:48.795Z,4.33
2023-01-30T18:10:57.883Z,5.80
2023-01-30T18:14:07.234Z,5.63
2023-01-30T18:17:15.705Z,8.40
2023-01-30T18:20:25.819Z,7.77
2023-01-30T18:23:34.453Z,8.07
2023-01-30T18:26:43.864Z,9.37
2023-01-30T18:29:53.105Z,8.27
2023-01-30T18:33:01.270Z,5.33
2023-01-30T18:36:13.735Z,6.17
2023-01-30T18:39:22.139Z,8.57
2023-01-30T18:42:30.711Z,5.97
2023-01-30T18:45:40.142Z,10.47
2023-01-30T18:48:49.238Z,8.07
2023-01-30T18:51:59.701Z,9.00
2023-01-30T18:55:09.386Z,9.67
2023-01-30T18:58:17.693Z,5.40
2023-01-30T19:01:28.911Z,7.13
2023-01-30T19:04:37.420Z,5.33
2023-01-30T19:07:47.829Z,5.77
2023-01-30T19:11:16.311Z,9.93
2023-01-30T19:14:23.559Z,6.50
2023-01-30T19:17:32.044Z,6.83
2023-01-30T19:20:41.218Z,3.67
2023-01-30T19:23:51.417Z,7.97
2023-01-30T19:26:59.867Z,5.50
2023-01-30T19:30:10.583Z,8.00
2023-01-30T19:33:20.748Z,8.37
2023-01-30T19:36:33.503Z,6.60
2023-01-30T19:39:43.486Z,5.70
2023-01-30T19:42:54.694Z,5.53
2023-01-30T19:46:06.301Z,5.27
2023-01-30T19:49:15.057Z,5.80
2023-01-30T19:52:24.140Z,5.10
2023-01-30T19:55:36.660Z,4.77
2023-01-30T19:58:45.212Z,7.20
2023-01-30T20:01:53.531Z,7.43
2023-01-30T20:05:02.557Z,4.43
2023-01-30T20:08:21.832Z,6.30
2023-01-30T20:11:41.986Z,5.60
2023-01-30T20:14:51.283Z,4.97
2023-01-30T20:17:59.738Z,5.30
2023-01-30T20:21:10.630Z,6.23
2023-01-30T20:24:19.295Z,7.73
2023-01-30T20:27:29.510Z,6.80
2023-01-30T20:30:40.960Z,4.97
2023-01-30T20:33:50.064Z,7.73
2023-01-30T20:36:59.759Z,5.20
2023-01-30T20:40:10.264Z,5.87
2023-01-30T20:43:20.186Z,3.57
2023-01-30T20:46:32.204Z,2.40
2023-01-30T20:49:40.666Z,3.93
2023-01-30T20:52:51.472Z,4.90
2023-01-30T20:56:00.125Z,4.93
2023-01-30T20:59:12.609Z,4.17
2023-01-30T21:02:21.035Z,5.43
2023-01-30T21:05:29.606Z,4.87
2023-01-30T21:08:41.530Z,4.27
2023-01-30T21:11:52.660Z,2.73
2023-01-30T21:15:02.231Z,4.67
2023-01-30T21:18:10.692Z,2.53
2023-01-30T21:21:22.483Z,5.13
2023-01-30T21:24:30.895Z,6.03
2023-01-30T21:27:40.749Z,3.00
2023-01-30T21:30:51.434Z,4.40
2023-01-30T21:34:00.830Z,2.93
2023-01-30T21:37:26.376Z,2.97
2023-01-30T21:40:51.998Z,4.63
2023-01-30T21:44:00.434Z,4.77
2023-01-30T21:47:10.037Z,3.73
2023-01-30T21:50:18.947Z,2.27
2023-01-30T21:53:28.107Z,3.63
2023-01-30T21:56:36.775Z,3.80
2023-01-30T21:59:45.209Z,5.63
2023-01-30T22:02:54.920Z,3.57
2023-01-30T22:06:03.991Z,4.97
2023-01-30T22:09:16.414Z,4.20
2023-01-30T22:12:25.162Z,3.77
2023-01-30T22:15:34.313Z,4.93
2023-01-30T22:18:45.768Z,5.47
2023-01-30T22:21:55.221Z,3.13
2023-01-30T22:25:03.776Z,3.77
2023-01-30T22:28:12.284Z,3.93
2023-01-30T22:31:22.222Z,4.70
2023-01-30T22:34:33.542Z,4.27
2023-01-30T22:37:43.082Z,5.00
2023-01-30T22:40:51.805Z,5.80
2023-01-30T22:44:02.393Z,3.90
2023-01-30T22:47:11.159Z,5.03
2023-01-30T22:50:21.289Z,3.37
2023-01-30T22:53:33.923Z,3.57
2023-01-30T22:56:44.271Z,2.90
2023-01-30T22:59:52.781Z,4.77
2023-01-30T23:03:01.106Z,4.90
2023-01-30T23:06:14.866Z,3.67
2023-01-30T23:09:24.582Z,4.07
2023-01-30T23:12:55.846Z,3.37
2023-01-30T23:16:06.891Z,2.37
2023-01-30T23:19:14.205Z,6.07
2023-01-30T23:22:24.118Z,6.67
2023-01-30T23:25:32.423Z,3.10
2023-01-30T23:28:41.612Z,4.17
2023-01-30T23:31:50.071Z,6.23
2023-01-30T23:34:58.397Z,3.57
2023-01-30T23:38:18.945Z,2.63
2023-01-30T23:41:30.457Z,6.20
2023-01-30T23:44:38.990Z,3.67
2023-01-30T23:47:47.094Z,6.13
2023-01-30T23:50:55.204Z,4.23
2023-01-30T23:54:06.721Z,3.67
2023-01-30T23:57:15.013Z,3.27
